Time;durP1;ratioP1;P1;durP2;ratioP2;P2;SDS_P1;SDS_P2;PMS_P1;PMS_P2;Temp;Humidity;BMP_temperature;BMP_pressure;BME280_temperature;BME280_humidity;BME280_pressure;Samples;Min_cycle;Max_cycle;Signal;HPM_P1;HPM_P2
2023/04/04 00:02:27;;;;;;;4.60;1.80;;;;;;;;;;107849;273;175650;-30
2023/04/04 00:05:04;;;;;;;4.50;1.70;;;;;;;;;;108020;269;42900;-30
2023/04/04 00:07:40;;;;;;;4.10;1.90;;;;;;;;;;107904;276;44156;-31
2023/04/04 00:10:17;;;;;;;4.10;1.80;;;;;;;;;;107998;276;38754;-31
2023/04/04 00:12:53;;;;;;;3.90;1.80;;;;;;;;;;108047;276;39714;-31
2023/04/04 00:15:29;;;;;;;3.70;1.60;;;;;;;;;;107996;268;44111;-31
2023/04/04 00:18:06;;;;;;;4.10;1.90;;;;;;;;;;107970;276;42154;-30
2023/04/04 00:20:43;;;;;;;3.70;1.70;;;;;;;;;;108032;277;38910;-30
2023/04/04 00:23:19;;;;;;;4.10;1.70;;;;;;;;;;107986;268;39762;-30
2023/04/04 00:25:59;;;;;;;4.40;1.90;;;;;;;;;;108011;273;42839;-30
2023/04/04 00:28:34;;;;;;;4.50;1.70;;;;;;;;;;107973;276;47822;-30
2023/04/04 00:31:09;;;;;;;4.70;1.80;;;;;;;;;;107991;277;38907;-30
2023/04/04 00:33:46;;;;;;;3.70;1.50;;;;;;;;;;107918;276;39671;-30
2023/04/04 00:36:22;;;;;;;4.20;1.70;;;;;;;;;;108020;276;42966;-30
2023/04/04 00:38:57;;;;;;;3.90;1.70;;;;;;;;;;107970;269;42149;-30
2023/04/04 00:41:36;;;;;;;3.60;1.70;;;;;;;;;;108002;273;38748;-30
2023/04/04 00:44:11;;;;;;;4.10;1.80;;;;;;;;;;107985;269;39787;-30
2023/04/04 00:46:47;;;;;;;3.80;1.70;;;;;;;;;;107950;269;42846;-30
2023/04/04 00:49:29;;;;;;;3.70;1.70;;;;;;;;;;107920;273;42227;-30
2023/04/04 00:52:05;;;;;;;3.70;1.60;;;;;;;;;;108001;276;38827;-30
2023/04/04 00:54:42;;;;;;;3.80;1.70;;;;;;;;;;107865;278;39720;-30
2023/04/04 00:57:24;;;;;;;4.80;2.00;;;;;;;;;;107935;273;43149;-30
2023/04/04 00:59:58;;;;;;;;;;;;;;;;;;107988;276;42266;-30
2023/04/04 01:02:40;;;;;;;3.50;1.70;;;;;;;;;;107985;273;39020;-30
2023/04/04 01:05:19;;;;;;;3.90;1.80;;;;;;;;;;108034;276;39949;-30
2023/04/04 01:07:53;;;;;;;3.80;1.70;;;;;;;;;;107936;273;44375;-30
2023/04/04 01:10:35;;;;;;;4.30;1.80;;;;;;;;;;107857;279;42986;-30
2023/04/04 01:13:11;;;;;;;3.90;1.70;;;;;;;;;;108052;269;38771;-30
2023/04/04 01:15:46;;;;;;;3.50;1.60;;;;;;;;;;107934;277;39681;-30
2023/04/04 01:18:24;;;;;;;4.10;1.60;;;;;;;;;;107948;273;42839;-30
2023/04/04 01:21:04;;;;;;;3.90;1.70;;;;;;;;;;108044;273;42138;-30
2023/04/04 01:23:52;;;;;;;4.70;2.00;;;;;;;;;;107977;273;40031;-30
2023/04/04 01:26:27;;;;;;;4.20;1.80;;;;;;;;;;108009;276;41000;-30
2023/04/04 01:29:02;;;;;;;3.80;1.90;;;;;;;;;;107928;268;42825;-31
2023/04/04 01:31:43;;;;;;;3.90;1.70;;;;;;;;;;108099;276;42535;-31
2023/04/04 01:34:30;;;;;;;4.50;1.80;;;;;;;;;;107872;268;175656;-31
2023/04/04 01:37:11;;;;;;;4.10;1.90;;;;;;;;;;108008;273;39666;-31
2023/04/04 01:39:51;;;;;;;4.30;2.00;;;;;;;;;;107487;279;43257;-31
2023/04/04 01:42:27;;;;;;;3.80;1.70;;;;;;;;;;107959;268;41982;-31
2023/04/04 01:45:04;;;;;;;5.00;1.90;;;;;;;;;;107938;276;38600;-30
2023/04/04 01:47:44;;;;;;;4.80;2.20;;;;;;;;;;107962;268;39712;-31
2023/04/04 01:50:20;;;;;;;3.70;1.80;;;;;;;;;;107953;276;49711;-31
2023/04/04 01:52:54;;;;;;;4.10;1.80;;;;;;;;;;108002;268;42148;-31
2023/04/04 01:55:33;;;;;;;4.00;1.80;;;;;;;;;;107991;273;38780;-31
2023/04/04 01:58:11;;;;;;;4.00;1.60;;;;;;;;;;108023;269;39668;-31
2023/04/04 02:00:45;;;;;;;3.60;1.70;;;;;;;;;;107997;276;50145;-31
2023/04/04 02:03:21;;;;;;;3.90;1.80;;;;;;;;;;108000;276;44321;-31
2023/04/04 02:05:57;;;;;;;4.10;1.80;;;;;;;;;;107959;276;38775;-31
2023/04/04 02:08:32;;;;;;;3.60;1.60;;;;;;;;;;107929;276;39891;-30
2023/04/04 02:11:08;;;;;;;4.20;1.70;;;;;;;;;;107974;276;50161;-30
2023/04/04 02:13:43;;;;;;;3.90;1.80;;;;;;;;;;107937;276;43241;-30
2023/04/04 02:16:20;;;;;;;3.70;1.80;;;;;;;;;;107970;268;38807;-30
2023/04/04 02:18:58;;;;;;;4.20;1.50;;;;;;;;;;107956;268;39721;-30
2023/04/04 02:21:34;;;;;;;4.10;1.50;;;;;;;;;;107970;268;43012;-30
2023/04/04 02:24:11;;;;;;;4.40;1.80;;;;;;;;;;108090;276;42134;-30
2023/04/04 02:26:46;;;;;;;3.70;1.90;;;;;;;;;;108008;276;39109;-30
2023/04/04 02:29:22;;;;;;;3.40;1.50;;;;;;;;;;107856;273;41804;-30
2023/04/04 02:31:59;;;;;;;3.90;1.60;;;;;;;;;;107974;276;42887;-30
2023/04/04 02:34:35;;;;;;;3.40;1.70;;;;;;;;;;107872;277;42370;-31
2023/04/04 02:37:13;;;;;;;4.00;1.80;;;;;;;;;;107958;270;38849;-31
2023/04/04 02:39:51;;;;;;;3.40;1.80;;;;;;;;;;107878;276;39772;-31
2023/04/04 02:42:27;;;;;;;3.70;1.60;;;;;;;;;;108008;277;42964;-31
2023/04/04 02:45:03;;;;;;;4.00;1.70;;;;;;;;;;107966;268;41855;-31
2023/04/04 02:47:39;;;;;;;4.20;1.80;;;;;;;;;;108000;276;38760;-31
2023/04/04 02:50:15;;;;;;;4.20;1.60;;;;;;;;;;107944;277;40072;-31
2023/04/04 02:52:53;;;;;;;4.10;1.70;;;;;;;;;;108000;273;42855;-31
2023/04/04 02:55:32;;;;;;;3.80;1.70;;;;;;;;;;107955;277;44355;-31
2023/04/04 02:58:10;;;;;;;3.80;1.60;;;;;;;;;;108011;268;38869;-31
2023/04/04 03:00:46;;;;;;;4.00;1.70;;;;;;;;;;107949;268;39693;-31
2023/04/04 03:03:22;;;;;;;4.20;2.00;;;;;;;;;;107986;268;42842;-30
2023/04/04 03:05:56;;;;;;;4.90;1.90;;;;;;;;;;107974;268;42052;-30
2023/04/04 03:08:35;;;;;;;5.30;1.90;;;;;;;;;;107944;273;38695;-30
2023/04/04 03:11:12;;;;;;;4.40;1.90;;;;;;;;;;107978;276;39839;-30
2023/04/04 03:13:51;;;;;;;4.40;1.80;;;;;;;;;;107915;273;42853;-30
2023/04/04 03:16:29;;;;;;;4.30;2.10;;;;;;;;;;108012;277;42141;-30
2023/04/04 03:19:05;;;;;;;5.50;2.00;;;;;;;;;;107867;273;192129;-30
2023/04/04 03:21:41;;;;;;;4.00;2.00;;;;;;;;;;107948;268;39889;-30
2023/04/04 03:24:18;;;;;;;4.70;1.90;;;;;;;;;;107982;273;42875;-30
2023/04/04 03:26:52;;;;;;;4.80;2.00;;;;;;;;;;108002;276;42118;-30
2023/04/04 03:29:27;;;;;;;4.00;1.80;;;;;;;;;;107920;277;38921;-30
2023/04/04 03:32:05;;;;;;;4.00;1.90;;;;;;;;;;107934;276;40712;-30
2023/04/04 03:34:41;;;;;;;5.30;2.00;;;;;;;;;;107985;276;44268;-30
2023/04/04 03:37:17;;;;;;;4.20;1.80;;;;;;;;;;107997;268;43256;-30
2023/04/04 03:39:53;;;;;;;4.90;2.00;;;;;;;;;;107921;269;38780;-30
2023/04/04 03:42:28;;;;;;;3.90;1.60;;;;;;;;;;107912;269;175157;-30
2023/04/04 03:45:03;;;;;;;4.60;1.90;;;;;;;;;;107958;277;42981;-30
2023/04/04 03:47:39;;;;;;;4.40;1.70;;;;;;;;;;107975;276;43246;-30
2023/04/04 03:50:14;;;;;;;3.90;1.70;;;;;;;;;;107847;273;175711;-30
2023/04/04 03:52:51;;;;;;;4.90;2.00;;;;;;;;;;107957;268;39838;-30
2023/04/04 03:55:27;;;;;;;4.40;2.00;;;;;;;;;;107987;276;42864;-30
2023/04/04 03:58:03;;;;;;;5.00;2.00;;;;;;;;;;107997;276;42129;-30
2023/04/04 04:00:42;;;;;;;4.30;2.00;;;;;;;;;;107961;276;39873;-30
2023/04/04 04:03:20;;;;;;;4.50;1.60;;;;;;;;;;107952;269;45332;-30
2023/04/04 04:05:55;;;;;;;4.90;1.80;;;;;;;;;;107980;273;42997;-30
2023/04/04 04:08:29;;;;;;;4.20;1.90;;;;;;;;;;108022;269;42161;-30
2023/04/04 04:11:11;;;;;;;4.40;1.90;;;;;;;;;;108039;277;39935;-30
2023/04/04 04:13:45;;;;;;;;;;;;;;;;;;107947;273;45743;-30
2023/04/04 04:16:21;;;;;;;3.80;1.60;;;;;;;;;;108003;276;44336;-31
2023/04/04 04:18:56;;;;;;;4.40;1.80;;;;;;;;;;107966;273;43284;-31
2023/04/04 04:21:32;;;;;;;3.80;1.60;;;;;;;;;;107963;273;38599;-31
2023/04/04 04:24:12;;;;;;;4.10;1.70;;;;;;;;;;107938;273;47829;-31
2023/04/04 04:26:47;;;;;;;4.60;1.90;;;;;;;;;;108019;269;42852;-31
2023/04/04 04:29:23;;;;;;;4.60;1.70;;;;;;;;;;107968;276;43246;-30
2023/04/04 04:32:03;;;;;;;4.20;1.50;;;;;;;;;;107881;268;175643;-30
2023/04/04 04:34:37;;;;;;;4.50;1.70;;;;;;;;;;107974;268;41969;-30
2023/04/04 04:37:13;;;;;;;4.20;1.80;;;;;;;;;;108004;268;43042;-30
2023/04/04 04:39:49;;;;;;;4.20;1.70;;;;;;;;;;107931;269;42327;-30
2023/04/04 04:42:24;;;;;;;5.10;2.30;;;;;;;;;;107950;273;38773;-30
2023/04/04 04:44:58;;;;;;;4.60;2.20;;;;;;;;;;107957;269;41015;-30
2023/04/04 04:47:36;;;;;;;5.10;2.50;;;;;;;;;;107983;277;43898;-30
2023/04/04 04:50:11;;;;;;;5.20;2.20;;;;;;;;;;108071;269;42535;-30
2023/04/04 04:52:45;;;;;;;4.80;2.30;;;;;;;;;;107950;273;38892;-31
2023/04/04 04:55:21;;;;;;;5.30;2.50;;;;;;;;;;107968;277;39668;-30
2023/04/04 04:57:54;;;;;;;5.30;2.70;;;;;;;;;;107957;277;44080;-30
2023/04/04 05:00:28;;;;;;;6.20;2.90;;;;;;;;;;107351;276;916228;-30
2023/04/04 05:03:05;;;;;;;5.10;2.80;;;;;;;;;;107986;269;38871;-30
2023/04/04 05:05:42;;;;;;;6.50;3.10;;;;;;;;;;108011;276;39901;-30
2023/04/04 05:08:15;;;;;;;5.40;2.90;;;;;;;;;;107879;276;176139;-30
2023/04/04 05:10:51;;;;;;;5.80;2.80;;;;;;;;;;108075;273;42615;-30
2023/04/04 05:13:29;;;;;;;5.70;3.00;;;;;;;;;;107954;276;38808;-30
2023/04/04 05:16:04;;;;;;;5.60;2.80;;;;;;;;;;108052;276;39698;-30
2023/04/04 05:18:42;;;;;;;5.30;2.70;;;;;;;;;;108009;273;42982;-30
2023/04/04 05:21:19;;;;;;;5.30;2.70;;;;;;;;;;108005;270;42469;-30
2023/04/04 05:23:54;;;;;;;5.10;2.60;;;;;;;;;;107966;273;40295;-30
2023/04/04 05:26:30;;;;;;;6.20;2.90;;;;;;;;;;107982;268;39715;-30
2023/04/04 05:29:04;;;;;;;5.40;3.00;;;;;;;;;;107952;276;42605;-30
2023/04/04 05:31:40;;;;;;;5.50;2.90;;;;;;;;;;107993;276;42262;-30
2023/04/04 05:34:14;;;;;;;5.40;2.80;;;;;;;;;;107954;276;38785;-30
2023/04/04 05:36:48;;;;;;;5.30;2.90;;;;;;;;;;108004;268;39609;-30
2023/04/04 05:39:24;;;;;;;6.00;3.00;;;;;;;;;;107944;276;42832;-31
2023/04/04 05:42:00;;;;;;;5.40;2.70;;;;;;;;;;107953;276;41903;-31
2023/04/04 05:44:33;;;;;;;5.00;2.70;;;;;;;;;;107967;273;38762;-31
2023/04/04 05:47:09;;;;;;;5.50;2.60;;;;;;;;;;107992;273;39799;-31
2023/04/04 05:49:46;;;;;;;4.90;2.70;;;;;;;;;;107912;277;42900;-30
2023/04/04 05:52:20;;;;;;;5.10;2.50;;;;;;;;;;108010;276;42481;-30
2023/04/04 05:54:56;;;;;;;5.80;2.70;;;;;;;;;;107920;276;38930;-30
2023/04/04 05:57:32;;;;;;;5.00;2.40;;;;;;;;;;107984;268;39840;-30
2023/04/04 06:00:12;;;;;;;4.90;2.40;;;;;;;;;;108007;268;42868;-30
2023/04/04 06:02:48;;;;;;;4.70;2.50;;;;;;;;;;107967;276;42121;-30
2023/04/04 06:05:24;;;;;;;5.70;2.40;;;;;;;;;;107910;277;38747;-30
2023/04/04 06:08:05;;;;;;;4.40;2.20;;;;;;;;;;107984;276;39855;-30
2023/04/04 06:10:41;;;;;;;4.60;2.20;;;;;;;;;;107996;276;43027;-30
2023/04/04 06:13:20;;;;;;;5.60;2.70;;;;;;;;;;107977;268;42202;-30
2023/04/04 06:15:55;;;;;;;5.70;2.50;;;;;;;;;;107954;273;38796;-31
2023/04/04 06:18:35;;;;;;;5.40;2.10;;;;;;;;;;108006;276;39809;-30
2023/04/04 06:21:17;;;;;;;4.90;2.10;;;;;;;;;;107956;276;42810;-30
2023/04/04 06:23:52;;;;;;;4.60;2.20;;;;;;;;;;107943;277;42125;-31
2023/04/04 06:26:27;;;;;;;5.00;2.30;;;;;;;;;;107963;268;44626;-30
2023/04/04 06:29:04;;;;;;;4.90;2.20;;;;;;;;;;107956;269;40421;-30
2023/04/04 06:31:42;;;;;;;4.70;2.10;;;;;;;;;;108038;276;42968;-30
2023/04/04 06:34:18;;;;;;;4.80;2.10;;;;;;;;;;107839;269;176770;-30
2023/04/04 06:36:55;;;;;;;5.20;2.20;;;;;;;;;;107941;273;45090;-30
2023/04/04 06:39:34;;;;;;;5.20;2.10;;;;;;;;;;107976;269;39987;-30
2023/04/04 06:42:11;;;;;;;5.20;2.20;;;;;;;;;;107971;268;42884;-31
2023/04/04 06:44:51;;;;;;;5.70;2.20;;;;;;;;;;107869;277;42374;-30
2023/04/04 06:47:28;;;;;;;5.30;2.10;;;;;;;;;;108027;273;39055;-30
2023/04/04 06:50:03;;;;;;;5.30;2.00;;;;;;;;;;108024;276;39808;-30
2023/04/04 06:52:37;;;;;;;5.60;2.20;;;;;;;;;;108019;268;42856;-30
2023/04/04 06:55:15;;;;;;;5.10;2.00;;;;;;;;;;107956;272;42141;-30
2023/04/04 06:57:51;;;;;;;5.20;2.10;;;;;;;;;;108129;269;38931;-30
2023/04/04 07:00:28;;;;;;;4.50;2.20;;;;;;;;;;108042;273;39662;-31
2023/04/04 07:03:10;;;;;;;5.20;2.40;;;;;;;;;;108008;277;43270;-30
2023/04/04 07:05:44;;;;;;;5.90;2.80;;;;;;;;;;107950;273;42178;-30
2023/04/04 07:08:19;;;;;;;6.40;2.60;;;;;;;;;;108068;273;38803;-30
2023/04/04 07:10:56;;;;;;;6.60;2.60;;;;;;;;;;108039;269;41846;-30
2023/04/04 07:13:35;;;;;;;7.70;2.70;;;;;;;;;;108000;269;43287;-30
2023/04/04 07:16:13;;;;;;;6.00;2.60;;;;;;;;;;108027;276;42109;-30
2023/04/04 07:18:52;;;;;;;6.00;2.90;;;;;;;;;;107997;269;38813;-27
2023/04/04 07:21:29;;;;;;;7.50;2.70;;;;;;;;;;108020;269;39652;-30
2023/04/04 07:24:06;;;;;;;6.20;2.80;;;;;;;;;;108097;268;42812;-30
2023/04/04 07:26:46;;;;;;;6.10;2.60;;;;;;;;;;107926;276;42114;-30
2023/04/04 07:29:25;;;;;;;7.40;2.80;;;;;;;;;;107957;276;38747;-30
2023/04/04 07:32:06;;;;;;;7.00;2.90;;;;;;;;;;107996;276;39715;-29
2023/04/04 07:34:44;;;;;;;6.70;3.00;;;;;;;;;;108006;268;43230;-30
2023/04/04 07:37:21;;;;;;;5.50;2.60;;;;;;;;;;108033;273;42217;-29
2023/04/04 07:39:57;;;;;;;7.10;2.90;;;;;;;;;;107911;277;40874;-29
2023/04/04 07:42:33;;;;;;;7.70;2.70;;;;;;;;;;107955;273;39673;-30
2023/04/04 07:45:11;;;;;;;5.30;2.50;;;;;;;;;;108000;273;43338;-30
2023/04/04 07:47:48;;;;;;;6.50;2.90;;;;;;;;;;107916;273;42154;-30
2023/04/04 07:50:25;;;;;;;6.60;2.80;;;;;;;;;;108007;269;38816;-30
2023/04/04 07:53:01;;;;;;;6.20;2.70;;;;;;;;;;107967;268;39731;-30
2023/04/04 07:55:40;;;;;;;5.80;2.70;;;;;;;;;;107983;273;42903;-30
2023/04/04 07:58:17;;;;;;;6.70;2.90;;;;;;;;;;107930;276;42093;-31
2023/04/04 08:00:54;;;;;;;5.80;2.50;;;;;;;;;;108004;269;39966;-30
2023/04/04 08:03:30;;;;;;;6.60;3.00;;;;;;;;;;107963;268;39723;-30
2023/04/04 08:06:04;;;;;;;5.60;2.50;;;;;;;;;;107977;273;42903;-32
2023/04/04 08:08:38;;;;;;;5.80;2.60;;;;;;;;;;107974;273;42304;-31
2023/04/04 08:11:15;;;;;;;5.70;2.70;;;;;;;;;;107981;269;38889;-31
2023/04/04 08:13:53;;;;;;;5.10;2.50;;;;;;;;;;107929;277;39821;-31
2023/04/04 08:16:28;;;;;;;5.50;2.60;;;;;;;;;;107936;276;44352;-30
2023/04/04 08:19:04;;;;;;;7.30;2.60;;;;;;;;;;107951;277;42145;-31
2023/04/04 08:21:41;;;;;;;5.30;2.30;;;;;;;;;;107972;277;38798;-30
2023/04/04 08:24:18;;;;;;;6.20;2.40;;;;;;;;;;107982;273;39698;-30
2023/04/04 08:26:57;;;;;;;5.80;2.50;;;;;;;;;;107930;276;42995;-30
2023/04/04 08:29:41;;;;;;;5.10;2.50;;;;;;;;;;107976;268;43006;-30
2023/04/04 08:32:17;;;;;;;6.00;2.50;;;;;;;;;;107976;276;38833;-30
2023/04/04 08:34:52;;;;;;;5.40;2.70;;;;;;;;;;107969;277;39858;-30
2023/04/04 08:37:30;;;;;;;6.10;2.50;;;;;;;;;;107953;273;42977;-30
2023/04/04 08:40:08;;;;;;;5.20;2.20;;;;;;;;;;108005;276;42229;-30
2023/04/04 08:42:45;;;;;;;5.30;2.30;;;;;;;;;;108002;273;39827;-30
2023/04/04 08:45:27;;;;;;;4.60;2.30;;;;;;;;;;108004;273;39706;-30
2023/04/04 08:48:05;;;;;;;5.10;2.20;;;;;;;;;;107931;276;42843;-30
2023/04/04 08:50:42;;;;;;;5.50;2.30;;;;;;;;;;107998;273;41853;-30
2023/04/04 08:53:20;;;;;;;4.90;2.20;;;;;;;;;;107976;269;38828;-30
2023/04/04 08:55:56;;;;;;;5.50;2.50;;;;;;;;;;107920;277;39659;-30
2023/04/04 08:58:34;;;;;;;5.10;2.40;;;;;;;;;;107957;269;45387;-30
2023/04/04 09:01:13;;;;;;;5.10;2.30;;;;;;;;;;107991;277;43511;-30
2023/04/04 09:03:50;;;;;;;4.90;2.20;;;;;;;;;;108020;273;38807;-30
2023/04/04 09:06:29;;;;;;;6.20;2.20;;;;;;;;;;107995;277;41170;-30
2023/04/04 09:09:08;;;;;;;5.00;2.20;;;;;;;;;;107898;269;42871;-30
2023/04/04 09:11:44;;;;;;;4.80;2.20;;;;;;;;;;107992;273;43275;-30
2023/04/04 09:14:20;;;;;;;4.60;2.00;;;;;;;;;;107964;273;38558;-30
2023/04/04 09:16:57;;;;;;;5.20;2.30;;;;;;;;;;108043;277;39678;-30
2023/04/04 09:19:37;;;;;;;5.20;2.10;;;;;;;;;;107883;273;42878;-30
2023/04/04 09:22:18;;;;;;;5.00;2.10;;;;;;;;;;108008;277;42128;-30
2023/04/04 09:24:56;;;;;;;4.70;2.00;;;;;;;;;;108022;269;39964;-30
2023/04/04 09:27:31;;;;;;;4.60;2.10;;;;;;;;;;107965;276;39684;-30
2023/04/04 09:30:08;;;;;;;4.40;1.80;;;;;;;;;;107904;279;49612;-30
2023/04/04 09:32:46;;;;;;;4.70;1.90;;;;;;;;;;107976;276;43541;-30
2023/04/04 09:35:22;;;;;;;4.70;2.10;;;;;;;;;;107997;268;39902;-30
2023/04/04 09:37:59;;;;;;;4.70;1.80;;;;;;;;;;107579;276;516254;-30
2023/04/04 09:40:33;;;;;;;5.30;1.80;;;;;;;;;;107975;276;48983;-30
2023/04/04 09:43:16;;;;;;;4.60;2.00;;;;;;;;;;107968;268;43369;-29
2023/04/04 09:45:53;;;;;;;4.30;1.90;;;;;;;;;;107954;273;38799;-29
2023/04/04 09:48:33;;;;;;;3.90;1.70;;;;;;;;;;107967;273;40788;-29
2023/04/04 09:51:16;;;;;;;4.30;1.90;;;;;;;;;;107958;273;43999;-29
2023/04/04 09:53:55;;;;;;;4.00;1.50;;;;;;;;;;107982;268;43187;-29
2023/04/04 09:56:32;;;;;;;4.40;1.80;;;;;;;;;;108012;268;38783;-29
2023/04/04 09:59:10;;;;;;;4.40;1.60;;;;;;;;;;107928;268;39828;-29
2023/04/04 10:01:49;;;;;;;4.60;1.70;;;;;;;;;;107960;273;42922;-29
2023/04/04 10:04:30;;;;;;;4.30;1.80;;;;;;;;;;107971;268;42157;-30
2023/04/04 10:07:06;;;;;;;4.20;1.70;;;;;;;;;;107952;273;38784;-29
2023/04/04 10:09:44;;;;;;;4.70;1.60;;;;;;;;;;107932;276;39688;-30
2023/04/04 10:12:24;;;;;;;4.90;1.70;;;;;;;;;;107989;268;42917;-30
2023/04/04 10:15:04;;;;;;;4.50;1.60;;;;;;;;;;107968;268;42200;-30
2023/04/04 10:17:46;;;;;;;3.90;1.70;;;;;;;;;;108012;268;38821;-31
2023/04/04 10:20:23;;;;;;;3.80;1.40;;;;;;;;;;107922;276;39659;-30
2023/04/04 10:23:02;;;;;;;4.10;1.50;;;;;;;;;;108039;268;42928;-30
2023/04/04 10:25:38;;;;;;;4.00;1.40;;;;;;;;;;108005;276;42103;-30
2023/04/04 10:28:15;;;;;;;4.40;1.70;;;;;;;;;;108000;273;38524;-30
2023/04/04 10:30:58;;;;;;;3.50;1.40;;;;;;;;;;107956;272;39718;-30
2023/04/04 10:33:47;;;;;;;3.40;1.50;;;;;;;;;;107988;276;42605;-30
2023/04/04 10:36:28;;;;;;;3.20;1.30;;;;;;;;;;108084;276;44509;-30
2023/04/04 10:39:08;;;;;;;3.40;1.40;;;;;;;;;;108093;276;38876;-30
2023/04/04 10:41:47;;;;;;;4.90;1.60;;;;;;;;;;107896;276;45452;-30
2023/04/04 10:44:34;;;;;;;3.70;1.50;;;;;;;;;;108084;269;43178;-30
2023/04/04 10:47:20;;;;;;;5.50;1.70;;;;;;;;;;108083;276;42087;-30
2023/04/04 10:49:56;;;;;;;3.50;1.50;;;;;;;;;;107963;277;39928;-30
2023/04/04 10:52:33;;;;;;;3.60;1.40;;;;;;;;;;108085;269;40750;-30
2023/04/04 10:55:13;;;;;;;4.00;1.40;;;;;;;;;;108063;276;42785;-30
2023/04/04 10:57:51;;;;;;;;;;;;;;;;;;107976;273;43232;-30
2023/04/04 11:00:27;;;;;;;4.80;1.60;;;;;;;;;;107887;269;39312;-31
2023/04/04 11:03:02;;;;;;;4.20;1.50;;;;;;;;;;108077;276;40838;-30
2023/04/04 11:05:45;;;;;;;3.80;1.30;;;;;;;;;;107933;270;42890;-30
2023/04/04 11:08:36;;;;;;;3.90;1.50;;;;;;;;;;108108;276;42587;-30
2023/04/04 11:11:17;;;;;;;3.80;1.30;;;;;;;;;;107956;273;38777;-31
2023/04/04 11:14:07;;;;;;;4.00;1.50;;;;;;;;;;107927;276;39646;-31
2023/04/04 11:16:56;;;;;;;3.50;1.50;;;;;;;;;;107906;277;42866;-30
2023/04/04 11:19:34;;;;;;;3.90;1.30;;;;;;;;;;108131;276;42065;-30
2023/04/04 11:22:11;;;;;;;3.60;1.30;;;;;;;;;;107976;268;38821;-30
2023/04/04 11:24:51;;;;;;;3.10;1.30;;;;;;;;;;108099;268;39790;-30
2023/04/04 11:27:34;;;;;;;3.90;1.40;;;;;;;;;;107950;277;42845;-30
2023/04/04 11:30:18;;;;;;;3.40;1.40;;;;;;;;;;107958;277;42113;-30
2023/04/04 11:32:57;;;;;;;3.90;1.40;;;;;;;;;;107943;276;44421;-31
2023/04/04 11:35:48;;;;;;;3.60;1.40;;;;;;;;;;107961;276;39423;-31
2023/04/04 11:38:23;;;;;;;3.70;1.30;;;;;;;;;;107997;277;43945;-31
2023/04/04 11:41:09;;;;;;;3.80;1.30;;;;;;;;;;107928;276;43087;-31
2023/04/04 11:43:53;;;;;;;3.20;1.20;;;;;;;;;;107985;276;38743;-30
2023/04/04 11:46:32;;;;;;;3.10;1.40;;;;;;;;;;107987;273;39679;-30
2023/04/04 11:49:07;;;;;;;3.50;1.40;;;;;;;;;;107950;268;42861;-30
2023/04/04 11:51:42;;;;;;;4.00;1.30;;;;;;;;;;107925;276;43286;-30
2023/04/04 11:54:19;;;;;;;3.20;1.20;;;;;;;;;;107996;273;38920;-30
2023/04/04 11:56:58;;;;;;;3.70;1.30;;;;;;;;;;107956;269;39647;-30
2023/04/04 11:59:44;;;;;;;3.40;1.20;;;;;;;;;;107979;268;42866;-30
2023/04/04 12:02:23;;;;;;;3.70;1.30;;;;;;;;;;107867;277;175586;-30
2023/04/04 12:05:03;;;;;;;3.50;1.30;;;;;;;;;;107995;276;38839;-30
2023/04/04 12:07:39;;;;;;;3.20;1.30;;;;;;;;;;107965;276;39954;-30
2023/04/04 12:10:19;;;;;;;3.50;1.20;;;;;;;;;;108004;273;42871;-30
2023/04/04 12:13:00;;;;;;;3.30;1.20;;;;;;;;;;107941;273;42130;-30
2023/04/04 12:15:36;;;;;;;3.40;1.30;;;;;;;;;;108002;273;38533;-30
2023/04/04 12:18:26;;;;;;;3.80;1.40;;;;;;;;;;107998;276;40118;-30
2023/04/04 12:21:03;;;;;;;3.70;1.20;;;;;;;;;;107982;273;42863;-30
2023/04/04 12:23:38;;;;;;;3.30;1.20;;;;;;;;;;107982;273;42122;-30
2023/04/04 12:26:17;;;;;;;4.00;1.30;;;;;;;;;;107924;270;38754;-30
2023/04/04 12:28:55;;;;;;;4.20;1.30;;;;;;;;;;107907;274;39704;-30
2023/04/04 12:31:34;;;;;;;3.70;1.30;;;;;;;;;;107903;273;43986;-30
2023/04/04 12:34:15;;;;;;;3.70;1.30;;;;;;;;;;107886;269;49490;-30
2023/04/04 12:37:04;;;;;;;3.10;1.20;;;;;;;;;;107901;277;39927;-30
2023/04/04 12:39:49;;;;;;;3.80;1.30;;;;;;;;;;107216;273;912960;-30
2023/04/04 12:42:30;;;;;;;2.90;1.10;;;;;;;;;;107872;278;42994;-30
2023/04/04 12:45:07;;;;;;;3.40;1.50;;;;;;;;;;107913;277;42289;-30
2023/04/04 12:47:53;;;;;;;3.30;1.30;;;;;;;;;;107949;277;38884;-30
2023/04/04 12:50:32;;;;;;;3.60;1.40;;;;;;;;;;107925;277;39700;-30
2023/04/04 12:53:11;;;;;;;3.10;1.10;;;;;;;;;;107880;269;42624;-29
2023/04/04 12:56:07;;;;;;;3.10;1.40;;;;;;;;;;107877;273;42207;-29
2023/04/04 12:58:40;;;;;;;3.00;1.10;;;;;;;;;;107907;273;38870;-29
2023/04/04 13:01:18;;;;;;;3.10;1.10;;;;;;;;;;107858;277;39678;-27
2023/04/04 13:03:56;;;;;;;3.40;1.20;;;;;;;;;;107860;273;42904;-29
2023/04/04 13:06:37;;;;;;;3.10;1.20;;;;;;;;;;107886;273;42147;-29
2023/04/04 13:09:25;;;;;;;3.30;1.20;;;;;;;;;;107918;273;39135;-29
2023/04/04 13:12:08;;;;;;;3.20;1.10;;;;;;;;;;107931;277;41261;-30
2023/04/04 13:15:05;;;;;;;2.80;1.20;;;;;;;;;;107886;270;44288;-30
2023/04/04 13:17:50;;;;;;;3.00;1.20;;;;;;;;;;107887;270;43187;-30
2023/04/04 13:20:25;;;;;;;2.90;1.10;;;;;;;;;;107966;276;40882;-29
2023/04/04 13:23:04;;;;;;;2.80;1.10;;;;;;;;;;107895;277;39483;-27
2023/04/04 13:25:39;;;;;;;2.90;1.10;;;;;;;;;;107900;273;42897;-27
2023/04/04 13:28:17;;;;;;;2.90;1.20;;;;;;;;;;107909;270;42249;-28
2023/04/04 13:30:52;;;;;;;3.10;1.20;;;;;;;;;;107943;277;38831;-28
2023/04/04 13:33:29;;;;;;;3.50;1.20;;;;;;;;;;107873;277;39524;-28
2023/04/04 13:36:08;;;;;;;3.70;1.20;;;;;;;;;;107924;270;42874;-27
2023/04/04 13:38:43;;;;;;;3.00;1.10;;;;;;;;;;107876;270;43266;-28
2023/04/04 13:41:17;;;;;;;3.50;1.30;;;;;;;;;;107935;273;38904;-28
2023/04/04 13:43:55;;;;;;;3.30;1.20;;;;;;;;;;107891;277;39739;-27
2023/04/04 13:46:29;;;;;;;2.90;1.10;;;;;;;;;;107903;277;42835;-28
2023/04/04 13:49:06;;;;;;;3.20;1.30;;;;;;;;;;107883;277;43599;-28
2023/04/04 13:51:43;;;;;;;3.10;1.20;;;;;;;;;;107908;270;39896;-28
2023/04/04 13:54:19;;;;;;;4.30;1.30;;;;;;;;;;107864;273;39827;-28
2023/04/04 13:56:56;;;;;;;3.20;1.10;;;;;;;;;;107931;273;44188;-28
2023/04/04 13:59:30;;;;;;;3.50;1.20;;;;;;;;;;107900;277;43276;-28
2023/04/04 14:02:06;;;;;;;2.80;1.10;;;;;;;;;;107899;270;38593;-28
2023/04/04 14:04:40;;;;;;;2.60;1.10;;;;;;;;;;107906;270;39688;-28
2023/04/04 14:07:23;;;;;;;3.10;1.20;;;;;;;;;;107904;270;44019;-28
2023/04/04 14:09:57;;;;;;;3.00;1.30;;;;;;;;;;107879;270;42132;-28
2023/04/04 14:12:32;;;;;;;2.80;1.00;;;;;;;;;;107922;273;40024;-28
2023/04/04 14:15:10;;;;;;;3.30;1.30;;;;;;;;;;107861;277;39844;-28
2023/04/04 14:17:51;;;;;;;3.20;1.20;;;;;;;;;;107963;270;44144;-28
2023/04/04 14:20:27;;;;;;;4.00;1.10;;;;;;;;;;107884;277;43244;-28
2023/04/04 14:23:05;;;;;;;3.20;1.10;;;;;;;;;;107896;270;39908;-28
2023/04/04 14:25:44;;;;;;;3.40;1.30;;;;;;;;;;107861;277;39646;-28
2023/04/04 14:28:20;;;;;;;3.30;1.20;;;;;;;;;;107955;273;42625;-28
2023/04/04 14:30:57;;;;;;;3.60;1.30;;;;;;;;;;107862;270;175594;-28
2023/04/04 14:33:32;;;;;;;3.30;1.20;;;;;;;;;;108001;273;40003;-28
2023/04/04 14:36:06;;;;;;;3.20;1.20;;;;;;;;;;107983;277;39724;-29
2023/04/04 14:38:39;;;;;;;3.90;1.30;;;;;;;;;;108003;277;44003;-29
2023/04/04 14:41:17;;;;;;;2.70;1.10;;;;;;;;;;108007;277;43268;-29
2023/04/04 14:43:52;;;;;;;3.30;1.20;;;;;;;;;;107955;277;40339;-29
2023/04/04 14:46:27;;;;;;;3.40;1.20;;;;;;;;;;107982;273;39569;-29
2023/04/04 14:49:04;;;;;;;3.70;1.50;;;;;;;;;;107960;268;42632;-29
2023/04/04 14:51:39;;;;;;;3.40;1.50;;;;;;;;;;107991;273;42159;-29
2023/04/04 14:54:14;;;;;;;3.40;1.30;;;;;;;;;;107981;273;38894;-29
2023/04/04 14:56:50;;;;;;;3.80;1.30;;;;;;;;;;107978;273;39845;-29
2023/04/04 14:59:24;;;;;;;3.60;1.30;;;;;;;;;;108000;277;42863;-29
2023/04/04 15:01:59;;;;;;;3.70;1.40;;;;;;;;;;108006;276;42307;-29
2023/04/04 15:04:35;;;;;;;3.70;1.50;;;;;;;;;;108018;268;38929;-29
2023/04/04 15:07:10;;;;;;;4.00;1.50;;;;;;;;;;108123;268;46617;-29
2023/04/04 15:09:47;;;;;;;4.40;1.40;;;;;;;;;;108012;276;42900;-29
2023/04/04 15:12:20;;;;;;;3.50;1.40;;;;;;;;;;107985;268;41833;-29
2023/04/04 15:14:54;;;;;;;3.10;1.30;;;;;;;;;;108024;277;38917;-29
2023/04/04 15:17:28;;;;;;;4.40;1.60;;;;;;;;;;107989;276;45395;-29
2023/04/04 15:20:03;;;;;;;3.60;1.60;;;;;;;;;;107983;268;43210;-29
2023/04/04 15:22:40;;;;;;;4.10;1.50;;;;;;;;;;107982;277;42279;-29
2023/04/04 15:25:14;;;;;;;3.60;1.40;;;;;;;;;;108051;276;38779;-29
2023/04/04 15:27:48;;;;;;;3.60;1.60;;;;;;;;;;107930;269;46462;-29
2023/04/04 15:30:22;;;;;;;3.50;1.30;;;;;;;;;;108034;276;42919;-29
2023/04/04 15:33:00;;;;;;;3.70;1.60;;;;;;;;;;108046;276;42272;-29
2023/04/04 15:35:36;;;;;;;3.60;1.60;;;;;;;;;;108108;275;38944;-29
2023/04/04 15:38:09;;;;;;;3.10;1.40;;;;;;;;;;108139;273;46448;-29
2023/04/04 15:40:43;;;;;;;3.40;1.40;;;;;;;;;;108038;268;42873;-29
2023/04/04 15:43:16;;;;;;;4.60;1.40;;;;;;;;;;108155;276;42491;-29
2023/04/04 15:45:52;;;;;;;3.20;1.40;;;;;;;;;;107968;272;38815;-29